createdAt,value
2019-03-30T00:00:46.619Z,5.00
2019-03-30T00:03:16.623Z,5.00
2019-03-30T00:05:46.541Z,4.90
2019-03-30T00:08:16.614Z,4.80
2019-03-30T00:10:46.144Z,4.70
2019-03-30T00:13:15.723Z,4.80
2019-03-30T00:15:45.395Z,5.00
2019-03-30T00:18:15.089Z,5.10
2019-03-30T00:20:44.721Z,5.20
2019-03-30T00:23:14.580Z,5.10
2019-03-30T00:25:44.616Z,5.20
2019-03-30T00:28:14.778Z,5.20
2019-03-30T00:30:44.731Z,5.10
2019-03-30T00:33:14.097Z,4.90
2019-03-30T00:35:43.708Z,4.70
2019-03-30T00:38:13.064Z,4.50
2019-03-30T00:40:43.199Z,4.40
2019-03-30T00:43:13.178Z,4.60
2019-03-30T00:45:43.224Z,5.00
2019-03-30T00:48:12.700Z,5.20
2019-03-30T00:50:42.476Z,5.20
2019-03-30T00:53:12.700Z,5.10
2019-03-30T00:55:42.852Z,4.80
2019-03-30T00:58:12.480Z,4.70
2019-03-30T01:00:42.276Z,4.70
2019-03-30T01:03:13.284Z,4.70
2019-03-30T01:05:43.176Z,4.80
2019-03-30T01:08:12.787Z,4.90
2019-03-30T01:10:42.831Z,4.70
2019-03-30T01:13:12.459Z,4.60
2019-03-30T01:15:41.787Z,4.70
2019-03-30T01:18:11.215Z,4.90
2019-03-30T01:20:41.149Z,5.00
2019-03-30T01:23:11.257Z,5.10
2019-03-30T01:25:41.316Z,5.00
2019-03-30T01:28:10.925Z,5.10
2019-03-30T01:30:40.336Z,5.10
2019-03-30T01:33:10.328Z,4.70
2019-03-30T01:35:40.567Z,4.50
2019-03-30T01:38:10.397Z,4.00
2019-03-30T01:40:40.071Z,3.90
2019-03-30T01:43:09.900Z,4.00
2019-03-30T01:45:39.552Z,4.20
2019-03-30T01:48:09.703Z,4.30
2019-03-30T01:50:39.204Z,4.40
2019-03-30T01:53:08.832Z,4.30
2019-03-30T01:55:38.668Z,4.30
2019-03-30T01:58:08.592Z,4.30
2019-03-30T02:00:38.530Z,4.30
2019-03-30T02:03:08.248Z,4.20
2019-03-30T02:05:37.944Z,4.20
2019-03-30T02:08:08.725Z,4.10
2019-03-30T02:10:40.754Z,4.10
2019-03-30T02:13:10.572Z,4.30
2019-03-30T02:15:40.494Z,4.20
2019-03-30T02:18:09.928Z,4.20
2019-03-30T02:20:41.440Z,4.10
2019-03-30T02:23:11.331Z,4.00
2019-03-30T02:25:41.453Z,4.00
2019-03-30T02:28:11.301Z,3.80
2019-03-30T02:30:40.965Z,3.80
2019-03-30T02:33:10.865Z,3.90
2019-03-30T02:35:40.382Z,4.00
2019-03-30T02:38:10.018Z,4.00
2019-03-30T02:40:39.534Z,3.90
2019-03-30T02:43:09.298Z,3.80
2019-03-30T02:45:39.425Z,3.60
2019-03-30T02:48:09.594Z,3.60
2019-03-30T02:50:49.263Z,3.60
2019-03-30T02:53:11.421Z,3.70
2019-03-30T02:55:41.438Z,3.70
2019-03-30T02:58:11.460Z,3.60
2019-03-30T03:00:41.486Z,3.60
2019-03-30T03:03:10.871Z,3.70
2019-03-30T03:05:40.626Z,3.80
2019-03-30T03:08:10.372Z,3.80
2019-03-30T03:10:41.244Z,3.90
2019-03-30T03:13:11.171Z,3.80
2019-03-30T03:15:41.088Z,3.80
2019-03-30T03:18:10.564Z,3.70
2019-03-30T03:20:40.323Z,3.70
2019-03-30T03:23:09.908Z,3.70
2019-03-30T03:25:39.814Z,3.80
2019-03-30T03:28:09.269Z,3.70
2019-03-30T03:30:38.821Z,3.90
2019-03-30T03:33:08.773Z,4.10
2019-03-30T03:35:38.807Z,4.10
2019-03-30T03:38:08.997Z,4.10
2019-03-30T03:40:39.349Z,4.20
2019-03-30T03:43:09.160Z,4.20
2019-03-30T03:45:38.740Z,4.00
2019-03-30T03:48:08.551Z,3.70
2019-03-30T03:50:45.913Z,3.50
2019-03-30T03:53:17.052Z,3.50
2019-03-30T03:55:46.700Z,3.50
2019-03-30T03:58:18.136Z,3.70
2019-03-30T04:00:49.775Z,3.80
2019-03-30T04:03:19.626Z,3.80
2019-03-30T04:05:49.942Z,3.70
2019-03-30T04:08:20.709Z,3.70
2019-03-30T04:10:51.666Z,3.90
2019-03-30T04:13:23.817Z,3.90
2019-03-30T04:15:53.310Z,3.80
2019-03-30T04:18:23.189Z,3.70
2019-03-30T04:20:53.156Z,3.70
2019-03-30T04:23:22.917Z,3.80
2019-03-30T04:25:52.682Z,3.70
2019-03-30T04:28:22.586Z,3.90
2019-03-30T04:30:52.347Z,3.90
2019-03-30T04:33:22.422Z,3.90
2019-03-30T04:35:52.049Z,3.80
2019-03-30T04:38:21.696Z,3.80
2019-03-30T04:40:51.136Z,3.70
2019-03-30T04:43:20.485Z,3.70
2019-03-30T04:45:50.030Z,3.80
2019-03-30T04:48:20.085Z,3.90
2019-03-30T04:50:49.511Z,3.80
2019-03-30T04:53:19.515Z,3.80
2019-03-30T04:55:49.084Z,3.90
2019-03-30T04:58:19.329Z,3.90
2019-03-30T05:00:49.061Z,3.70
2019-03-30T05:03:19.252Z,3.60
2019-03-30T05:05:48.905Z,3.40
2019-03-30T05:08:18.295Z,3.30
2019-03-30T05:10:48.573Z,3.20
2019-03-30T05:13:18.363Z,3.20
2019-03-30T05:15:48.743Z,3.40
2019-03-30T05:18:18.516Z,3.60
2019-03-30T05:20:48.456Z,3.80
2019-03-30T05:23:18.395Z,3.80
2019-03-30T05:25:48.327Z,3.90
2019-03-30T05:28:18.091Z,4.00
2019-03-30T05:30:48.128Z,4.00
2019-03-30T05:33:17.873Z,4.20
2019-03-30T05:35:47.821Z,4.30
2019-03-30T05:38:17.276Z,4.60
2019-03-30T05:40:46.852Z,4.90
2019-03-30T05:43:16.762Z,5.20
2019-03-30T05:45:46.914Z,5.60
2019-03-30T05:48:17.084Z,6.00
2019-03-30T05:50:46.950Z,6.50
2019-03-30T05:53:17.120Z,6.80
2019-03-30T05:55:47.053Z,7.00
2019-03-30T05:58:16.864Z,7.00
2019-03-30T06:00:46.571Z,7.30
2019-03-30T06:03:16.706Z,7.50
2019-03-30T06:05:46.352Z,7.30
2019-03-30T06:08:16.088Z,7.00
2019-03-30T06:10:45.908Z,6.70
2019-03-30T06:13:15.735Z,6.50
2019-03-30T06:15:45.800Z,6.40
2019-03-30T06:18:15.859Z,6.70
2019-03-30T06:20:45.775Z,7.40
2019-03-30T06:23:15.645Z,8.30
2019-03-30T06:25:45.396Z,9.00
2019-03-30T06:28:15.024Z,9.90
2019-03-30T06:30:44.910Z,10.70
2019-03-30T06:33:14.224Z,11.40
2019-03-30T06:35:43.800Z,11.90
2019-03-30T06:38:13.396Z,12.40
2019-03-30T06:40:43.653Z,13.00
2019-03-30T06:43:13.374Z,13.40
2019-03-30T06:45:42.788Z,14.10
2019-03-30T06:48:12.160Z,14.80
2019-03-30T06:50:41.884Z,15.30
2019-03-30T06:53:11.892Z,16.10
2019-03-30T06:55:41.307Z,16.30
2019-03-30T06:58:11.516Z,17.00
2019-03-30T07:00:41.636Z,17.30
2019-03-30T07:03:11.113Z,17.60
2019-03-30T07:05:42.574Z,17.90
2019-03-30T07:08:16.282Z,18.30
2019-03-30T07:10:47.111Z,18.70
2019-03-30T07:13:16.802Z,19.20
2019-03-30T07:15:47.292Z,19.50
2019-03-30T07:18:17.616Z,19.60
2019-03-30T07:20:47.310Z,20.20
2019-03-30T07:23:16.852Z,20.40
2019-03-30T07:25:46.715Z,20.80
2019-03-30T07:28:16.841Z,21.30
2019-03-30T07:30:46.550Z,21.10
2019-03-30T07:33:16.287Z,21.30
2019-03-30T07:35:46.307Z,21.50
2019-03-30T07:38:17.115Z,22.20
2019-03-30T07:40:47.229Z,22.30
2019-03-30T07:43:17.076Z,22.50
2019-03-30T07:45:46.519Z,23.00
2019-03-30T07:48:16.162Z,23.20
2019-03-30T07:50:46.485Z,23.40
2019-03-30T07:53:26.377Z,23.40
2019-03-30T07:55:47.427Z,23.20
2019-03-30T07:58:17.144Z,23.40
2019-03-30T08:00:46.987Z,23.60
2019-03-30T08:03:16.402Z,23.80
2019-03-30T08:05:48.757Z,24.40
2019-03-30T08:08:18.650Z,24.90
2019-03-30T08:10:48.177Z,25.00
2019-03-30T08:13:18.383Z,25.10
2019-03-30T08:15:48.387Z,25.40
2019-03-30T08:18:18.240Z,25.40
2019-03-30T08:20:47.749Z,25.70
2019-03-30T08:23:17.543Z,25.80
2019-03-30T08:25:47.431Z,25.90
2019-03-30T08:28:17.051Z,26.60
2019-03-30T08:30:46.399Z,26.60
2019-03-30T08:33:16.782Z,26.90
2019-03-30T08:35:46.227Z,27.20
2019-03-30T08:38:15.992Z,27.50
2019-03-30T08:40:45.715Z,27.60
2019-03-30T08:43:15.896Z,28.30
2019-03-30T08:45:48.799Z,28.20
2019-03-30T08:48:17.613Z,28.20
2019-03-30T08:50:47.705Z,27.80
2019-03-30T08:53:17.881Z,27.30
2019-03-30T08:55:47.747Z,27.80
2019-03-30T08:58:17.492Z,27.90
2019-03-30T09:00:47.487Z,27.80
2019-03-30T09:03:16.910Z,28.10
2019-03-30T09:05:46.427Z,28.50
2019-03-30T09:08:15.828Z,28.40
2019-03-30T09:10:45.488Z,28.90
2019-03-30T09:13:15.204Z,29.00
2019-03-30T09:15:45.068Z,27.80
2019-03-30T09:18:14.623Z,26.60
2019-03-30T09:20:44.228Z,24.80
2019-03-30T09:23:14.419Z,24.40
2019-03-30T09:25:43.772Z,24.50
2019-03-30T09:28:13.084Z,24.90
2019-03-30T09:30:42.890Z,25.00
2019-03-30T09:33:12.604Z,24.50
2019-03-30T09:35:42.316Z,24.50
2019-03-30T09:38:14.798Z,24.30
2019-03-30T09:40:44.503Z,24.80
2019-03-30T09:43:15.243Z,26.40
2019-03-30T09:45:44.808Z,26.70
2019-03-30T09:48:14.626Z,27.20
2019-03-30T09:50:44.741Z,27.40
2019-03-30T09:53:14.192Z,27.80
2019-03-30T09:55:44.088Z,28.20
2019-03-30T09:58:14.057Z,28.10
2019-03-30T10:00:43.693Z,27.70
2019-03-30T10:03:13.769Z,27.70
2019-03-30T10:05:44.796Z,27.80
2019-03-30T10:08:14.713Z,27.20
2019-03-30T10:10:44.663Z,27.30
2019-03-30T10:13:14.204Z,27.50
2019-03-30T10:15:44.426Z,27.60
2019-03-30T10:18:14.099Z,28.00
2019-03-30T10:20:43.866Z,28.20
2019-03-30T10:23:13.331Z,28.40
2019-03-30T10:25:43.144Z,28.40
2019-03-30T10:28:12.504Z,28.30
2019-03-30T10:30:42.203Z,27.50
2019-03-30T10:33:11.661Z,27.60
2019-03-30T10:35:41.079Z,26.60
2019-03-30T10:38:11.425Z,26.80
2019-03-30T10:40:40.838Z,26.60
2019-03-30T10:43:10.435Z,26.40
2019-03-30T10:45:40.071Z,26.80
2019-03-30T10:48:09.534Z,26.60
2019-03-30T10:50:39.787Z,25.90
2019-03-30T10:53:10.586Z,25.30
2019-03-30T10:55:41.542Z,25.10
2019-03-30T10:58:11.208Z,25.70
2019-03-30T11:00:41.739Z,26.50
2019-03-30T11:03:11.547Z,26.30
2019-03-30T11:05:43.332Z,25.80
2019-03-30T11:08:13.277Z,24.50
2019-03-30T11:10:44.868Z,24.80
2019-03-30T11:13:14.276Z,24.40
2019-03-30T11:15:44.117Z,24.60
2019-03-30T11:18:13.984Z,25.60
2019-03-30T11:20:43.655Z,26.00
2019-03-30T11:23:15.278Z,26.10
2019-03-30T11:25:44.870Z,26.20
2019-03-30T11:28:14.296Z,27.10
2019-03-30T11:30:43.643Z,27.50
2019-03-30T11:33:12.951Z,27.50
2019-03-30T11:35:42.995Z,26.20
2019-03-30T11:38:12.635Z,25.90
2019-03-30T11:40:41.955Z,25.60
2019-03-30T11:43:11.979Z,25.60
2019-03-30T11:45:41.631Z,25.30
2019-03-30T11:48:11.351Z,25.10
2019-03-30T11:50:41.375Z,24.60
2019-03-30T11:53:11.087Z,25.20
2019-03-30T11:55:40.639Z,26.20
2019-03-30T11:58:10.384Z,26.60
2019-03-30T12:00:40.127Z,25.70
2019-03-30T12:03:10.135Z,25.20
2019-03-30T12:05:39.599Z,24.00
2019-03-30T12:08:09.659Z,23.80
2019-03-30T12:10:39.648Z,24.00
2019-03-30T12:13:09.712Z,24.40
2019-03-30T12:15:39.487Z,24.30
2019-03-30T12:18:09.640Z,24.20
2019-03-30T12:20:39.165Z,23.60
2019-03-30T12:23:09.379Z,23.40
2019-03-30T12:25:38.790Z,23.90
2019-03-30T12:28:08.606Z,24.10
2019-03-30T12:30:38.000Z,24.10
2019-03-30T12:33:07.789Z,24.40
2019-03-30T12:35:37.703Z,24.40
2019-03-30T12:38:07.163Z,24.40
2019-03-30T12:40:36.699Z,24.10
2019-03-30T12:43:06.493Z,24.20
2019-03-30T12:45:36.712Z,24.20
2019-03-30T12:48:06.264Z,24.60
2019-03-30T12:50:35.764Z,24.80
2019-03-30T12:53:05.232Z,24.50
2019-03-30T12:55:48.322Z,24.40
2019-03-30T12:58:06.421Z,23.90
2019-03-30T13:00:36.100Z,23.60
2019-03-30T13:03:05.966Z,24.20
2019-03-30T13:05:35.618Z,24.60
2019-03-30T13:08:05.538Z,24.60
2019-03-30T13:10:34.988Z,24.70
2019-03-30T13:13:04.847Z,24.60
2019-03-30T13:15:34.294Z,24.10
2019-03-30T13:18:04.200Z,24.40
2019-03-30T13:20:34.595Z,24.20
2019-03-30T13:23:04.632Z,24.60
2019-03-30T13:25:34.728Z,25.00
2019-03-30T13:28:04.743Z,26.00
2019-03-30T13:30:35.229Z,25.30
2019-03-30T13:33:06.410Z,25.60
2019-03-30T13:35:37.363Z,25.90
2019-03-30T13:38:07.511Z,25.80
2019-03-30T13:40:37.606Z,26.00
2019-03-30T13:43:07.669Z,25.90
2019-03-30T13:45:37.325Z,25.20
2019-03-30T13:48:07.249Z,24.90
2019-03-30T13:50:37.702Z,24.80
2019-03-30T13:53:07.233Z,24.50
2019-03-30T13:55:36.880Z,24.00
2019-03-30T13:58:06.713Z,23.30
2019-03-30T14:00:36.523Z,23.00
2019-03-30T14:03:06.545Z,23.10
2019-03-30T14:05:36.885Z,24.10
2019-03-30T14:08:06.302Z,24.40
2019-03-30T14:10:38.964Z,24.70
2019-03-30T14:13:08.128Z,23.50
2019-03-30T14:15:37.825Z,22.80
2019-03-30T14:18:07.464Z,21.90
2019-03-30T14:20:37.157Z,21.40
2019-03-30T14:23:07.017Z,21.50
2019-03-30T14:25:37.003Z,21.50
2019-03-30T14:28:07.445Z,21.60
2019-03-30T14:30:37.116Z,21.70
2019-03-30T14:33:07.419Z,21.70
2019-03-30T14:35:37.675Z,21.40
2019-03-30T14:38:07.472Z,20.80
2019-03-30T14:40:37.496Z,20.80
2019-03-30T14:43:08.231Z,20.60
2019-03-30T14:45:37.580Z,20.50
2019-03-30T14:48:08.040Z,21.00
2019-03-30T14:50:38.104Z,21.60
2019-03-30T14:53:07.616Z,22.10
2019-03-30T14:55:39.558Z,21.80
2019-03-30T14:58:08.946Z,21.40
2019-03-30T15:00:38.324Z,20.60
2019-03-30T15:03:07.991Z,20.70
2019-03-30T15:05:37.720Z,20.70
2019-03-30T15:08:07.632Z,21.30
2019-03-30T15:10:37.832Z,22.00
2019-03-30T15:13:07.277Z,22.40
2019-03-30T15:15:37.404Z,22.80
2019-03-30T15:18:07.447Z,23.90
2019-03-30T15:20:36.864Z,24.30
2019-03-30T15:23:07.228Z,23.60
2019-03-30T15:25:37.592Z,22.30
2019-03-30T15:28:07.848Z,22.30
2019-03-30T15:30:37.932Z,21.50
2019-03-30T15:33:08.296Z,21.10
2019-03-30T15:35:38.112Z,21.20
2019-03-30T15:38:08.292Z,21.20
2019-03-30T15:40:37.727Z,20.90
2019-03-30T15:43:07.864Z,21.20
2019-03-30T15:45:37.624Z,21.60
2019-03-30T15:48:07.348Z,21.80
2019-03-30T15:50:37.187Z,21.00
2019-03-30T15:53:06.861Z,20.80
2019-03-30T15:55:36.915Z,20.70
2019-03-30T15:58:06.696Z,20.50
2019-03-30T16:00:36.411Z,20.20
2019-03-30T16:03:06.719Z,20.30
2019-03-30T16:05:36.139Z,20.70
2019-03-30T16:08:06.551Z,20.90
2019-03-30T16:10:36.200Z,20.90
2019-03-30T16:13:06.072Z,20.10
2019-03-30T16:15:35.752Z,20.00
2019-03-30T16:18:05.393Z,19.90
2019-03-30T16:20:35.105Z,19.50
2019-03-30T16:23:05.735Z,18.90
2019-03-30T16:25:35.272Z,18.50
2019-03-30T16:28:05.361Z,18.20
2019-03-30T16:30:35.173Z,18.20
2019-03-30T16:33:06.004Z,18.10
2019-03-30T16:35:35.407Z,18.20
2019-03-30T16:38:05.351Z,18.40
2019-03-30T16:40:35.340Z,18.60
2019-03-30T16:43:08.257Z,18.70
2019-03-30T16:45:36.597Z,18.60
2019-03-30T16:48:06.620Z,18.60
2019-03-30T16:50:36.707Z,18.40
2019-03-30T16:53:06.453Z,18.30
2019-03-30T16:55:36.869Z,18.40
2019-03-30T16:58:06.900Z,18.10
2019-03-30T17:00:36.398Z,17.80
2019-03-30T17:03:06.335Z,17.70
2019-03-30T17:05:35.725Z,17.70
2019-03-30T17:08:05.277Z,17.70
2019-03-30T17:10:35.630Z,17.90
2019-03-30T17:13:05.356Z,18.00
2019-03-30T17:15:34.991Z,18.20
2019-03-30T17:18:05.627Z,18.30
2019-03-30T17:20:35.330Z,18.30
2019-03-30T17:23:05.116Z,18.30
2019-03-30T17:25:34.747Z,18.30
2019-03-30T17:28:06.849Z,18.40
2019-03-30T17:30:36.048Z,18.10
2019-03-30T17:33:05.759Z,18.00
2019-03-30T17:35:35.748Z,18.00
2019-03-30T17:38:05.276Z,17.90
2019-03-30T17:40:35.341Z,17.80
2019-03-30T17:43:04.983Z,17.70
2019-03-30T17:45:35.072Z,17.70
2019-03-30T17:48:04.744Z,17.70
2019-03-30T17:50:34.449Z,17.70
2019-03-30T17:53:04.406Z,17.60
2019-03-30T17:55:34.396Z,17.60
2019-03-30T17:58:13.087Z,17.50
2019-03-30T18:00:36.411Z,17.40
2019-03-30T18:03:06.801Z,17.20
2019-03-30T18:05:36.473Z,17.10
2019-03-30T18:08:06.115Z,16.80
2019-03-30T18:10:35.857Z,16.70
2019-03-30T18:13:05.238Z,16.60
2019-03-30T18:15:35.013Z,16.40
2019-03-30T18:18:05.191Z,16.30
2019-03-30T18:20:35.703Z,16.10
2019-03-30T18:23:05.435Z,15.90
2019-03-30T18:25:35.129Z,15.60
2019-03-30T18:28:05.149Z,15.20
2019-03-30T18:30:36.956Z,14.70
2019-03-30T18:33:06.928Z,14.40
2019-03-30T18:35:38.383Z,14.20
2019-03-30T18:38:08.127Z,14.00
2019-03-30T18:40:38.035Z,14.00
2019-03-30T18:43:07.528Z,13.80
2019-03-30T18:45:37.151Z,13.80
2019-03-30T18:48:14.459Z,13.80
2019-03-30T18:50:44.518Z,13.80
2019-03-30T18:53:14.787Z,13.70
2019-03-30T18:55:44.655Z,13.70
2019-03-30T18:58:14.059Z,13.70
2019-03-30T19:00:43.838Z,13.70
2019-03-30T19:03:13.687Z,13.70
2019-03-30T19:05:43.867Z,13.70
2019-03-30T19:08:13.548Z,13.60
2019-03-30T19:10:43.388Z,13.60
2019-03-30T19:13:13.190Z,13.60
2019-03-30T19:15:42.647Z,13.50
2019-03-30T19:18:12.396Z,13.50
2019-03-30T19:20:42.261Z,13.40
2019-03-30T19:23:12.284Z,13.40
2019-03-30T19:25:41.808Z,13.40
2019-03-30T19:28:11.304Z,13.30
2019-03-30T19:30:42.342Z,13.30
2019-03-30T19:33:11.824Z,13.20
2019-03-30T19:35:41.271Z,13.20
2019-03-30T19:38:11.376Z,13.10
2019-03-30T19:40:40.827Z,13.10
2019-03-30T19:43:10.863Z,13.10
2019-03-30T19:45:40.524Z,13.10
2019-03-30T19:48:09.851Z,13.10
2019-03-30T19:50:40.016Z,13.00
2019-03-30T19:53:10.128Z,13.00
2019-03-30T19:55:40.454Z,13.00
2019-03-30T19:58:10.939Z,12.80
2019-03-30T20:00:41.380Z,12.70
2019-03-30T20:03:11.626Z,12.60
2019-03-30T20:05:44.515Z,12.20
2019-03-30T20:08:12.905Z,11.80
2019-03-30T20:10:42.331Z,11.40
2019-03-30T20:13:11.835Z,11.40
2019-03-30T20:15:41.604Z,11.60
2019-03-30T20:18:11.817Z,11.60
2019-03-30T20:20:41.186Z,11.50
2019-03-30T20:23:10.844Z,11.40
2019-03-30T20:25:41.213Z,11.50
2019-03-30T20:28:10.991Z,11.40
2019-03-30T20:30:40.427Z,11.30
2019-03-30T20:33:09.783Z,11.30
2019-03-30T20:35:39.569Z,11.20
2019-03-30T20:38:09.775Z,11.00
2019-03-30T20:40:39.744Z,10.80
2019-03-30T20:43:09.700Z,10.70
2019-03-30T20:45:39.052Z,10.70
2019-03-30T20:48:08.887Z,10.70
2019-03-30T20:50:38.681Z,10.70
2019-03-30T20:53:08.984Z,10.70
2019-03-30T20:55:39.425Z,10.70
2019-03-30T20:58:09.184Z,10.80
2019-03-30T21:00:38.845Z,10.70
2019-03-30T21:03:08.564Z,10.80
2019-03-30T21:05:38.164Z,10.70
2019-03-30T21:08:07.667Z,10.70
2019-03-30T21:10:37.205Z,10.80
2019-03-30T21:13:07.203Z,10.80
2019-03-30T21:15:37.608Z,10.90
2019-03-30T21:18:07.636Z,10.90
2019-03-30T21:20:38.067Z,11.00
2019-03-30T21:23:07.983Z,11.10
2019-03-30T21:25:37.639Z,11.20
2019-03-30T21:28:07.890Z,11.10
2019-03-30T21:30:37.792Z,11.10
2019-03-30T21:33:07.241Z,11.00
2019-03-30T21:35:36.964Z,10.90
2019-03-30T21:38:06.269Z,10.90
2019-03-30T21:40:35.662Z,10.80
2019-03-30T21:43:05.792Z,10.70
2019-03-30T21:45:36.217Z,10.60
2019-03-30T21:48:06.229Z,10.60
2019-03-30T21:50:36.469Z,10.60
2019-03-30T21:53:06.539Z,10.70
2019-03-30T21:55:36.567Z,10.80
2019-03-30T21:58:06.372Z,10.60
2019-03-30T22:00:37.711Z,10.50
2019-03-30T22:03:07.750Z,10.60
2019-03-30T22:05:37.175Z,10.60
2019-03-30T22:08:07.720Z,10.60
2019-03-30T22:10:38.284Z,10.50
2019-03-30T22:13:07.567Z,10.50
2019-03-30T22:15:36.887Z,10.40
2019-03-30T22:18:07.022Z,10.20
2019-03-30T22:20:36.728Z,10.10
2019-03-30T22:23:07.061Z,10.00
2019-03-30T22:25:36.847Z,9.80
2019-03-30T22:28:06.513Z,9.80
2019-03-30T22:30:36.694Z,9.70
2019-03-30T22:33:06.095Z,9.70
2019-03-30T22:35:35.731Z,9.80
2019-03-30T22:38:05.821Z,9.90
2019-03-30T22:40:35.640Z,10.00
2019-03-30T22:43:05.007Z,10.20
2019-03-30T22:45:34.475Z,10.20
2019-03-30T22:48:06.406Z,10.10
2019-03-30T22:50:35.856Z,10.10
2019-03-30T22:53:05.359Z,9.80
2019-03-30T22:55:35.023Z,9.70
2019-03-30T22:58:04.484Z,9.60
2019-03-30T23:00:52.131Z,9.60
2019-03-30T23:03:21.871Z,9.60
2019-03-30T23:05:52.087Z,9.60
2019-03-30T23:08:21.412Z,9.50
2019-03-30T23:10:51.104Z,9.50
2019-03-30T23:13:20.635Z,9.50
2019-03-30T23:15:50.755Z,9.50
2019-03-30T23:18:20.559Z,9.60
2019-03-30T23:20:50.419Z,9.60
2019-03-30T23:23:20.772Z,9.70
2019-03-30T23:25:50.095Z,9.70
2019-03-30T23:28:19.407Z,9.80
2019-03-30T23:30:54.616Z,9.80
2019-03-30T23:33:20.839Z,9.80
2019-03-30T23:35:50.563Z,9.70
2019-03-30T23:38:20.776Z,9.80
2019-03-30T23:40:50.723Z,9.80
2019-03-30T23:43:20.135Z,9.60
2019-03-30T23:45:50.511Z,9.60
2019-03-30T23:48:20.478Z,9.60
2019-03-30T23:50:50.705Z,9.70
2019-03-30T23:53:20.419Z,9.60
2019-03-30T23:55:49.833Z,9.50
2019-03-30T23:58:19.791Z,9.50
